Time;durP1;ratioP1;P1;durP2;ratioP2;P2;SDS_P1;SDS_P2;PMS_P1;PMS_P2;Temp;Humidity;BMP_temperature;BMP_pressure;BME280_temperature;BME280_humidity;BME280_pressure;Samples;Min_cycle;Max_cycle;Signal;HPM_P1;HPM_P2
2022/04/20 00:02:10;;;;;;;;;;;5.30;99.90;;;;;;5116808;28;19941;-50
2022/04/20 00:04:36;;;;;;;;;;;5.20;99.90;;;;;;5116409;28;20018;-51
2022/04/20 00:07:01;;;;;;;;;;;5.20;99.90;;;;;;5097936;28;19911;-47
2022/04/20 00:09:27;;;;;;;;;;;5.20;99.90;;;;;;5116241;28;19927;-46
2022/04/20 00:11:52;;;;;;;;;;;5.30;99.90;;;;;;5115890;28;19946;-46
2022/04/20 00:14:18;;;;;;;;;;;5.30;99.90;;;;;;5097860;28;19947;-45
2022/04/20 00:16:43;;;;;;;;;;;5.20;99.90;;;;;;5116166;28;19907;-45
2022/04/20 00:19:09;;;;;;;;;;;5.20;99.90;;;;;;5115361;28;19908;-51
2022/04/20 00:21:34;;;;;;;;;;;5.20;99.90;;;;;;5115997;28;20346;-49
2022/04/20 00:24:00;;;;;;;;;;;5.10;99.90;;;;;;5115639;28;19930;-49
2022/04/20 00:26:25;;;;;;;;;;;5.10;99.90;;;;;;5115825;28;19916;-48
2022/04/20 00:28:51;;;;;;;;;;;5.10;99.90;;;;;;5097571;28;20264;-50
2022/04/20 00:31:18;;;;;;;;;;;5.00;99.90;;;;;;5115460;28;19920;-47
2022/04/20 00:33:44;;;;;;;;;;;5.00;99.90;;;;;;5115662;28;19915;-48
2022/04/20 00:36:09;;;;;;;;;;;5.00;99.90;;;;;;5115441;28;20357;-47
2022/04/20 00:38:35;;;;;;;;;;;4.90;99.90;;;;;;5115815;28;19908;-48
2022/04/20 00:41:00;;;;;;;;;;;4.90;99.90;;;;;;5115417;28;19907;-46
2022/04/20 00:43:28;;;;;;;;;;;5.00;99.90;;;;;;5097322;28;19994;-46
2022/04/20 00:45:53;;;;;;;;;;;4.90;99.90;;;;;;5115170;28;19908;-48
2022/04/20 00:48:20;;;;;;;;;;;4.90;99.90;;;;;;5115474;28;19915;-47
2022/04/20 00:50:45;;;;;;;;;;;4.80;99.90;;;;;;5115245;28;19912;-48
2022/04/20 00:53:11;;;;;;;;;;;4.80;99.90;;;;;;5115079;28;20374;-44
2022/04/20 00:55:36;;;;;;;;;;;4.80;99.90;;;;;;5115325;28;19914;-44
2022/04/20 00:58:02;;;;;;;;;;;4.70;99.90;;;;;;5097008;28;19947;-46
2022/04/20 01:00:29;;;;;;;;;;;4.70;99.90;;;;;;5114945;28;20413;-45
2022/04/20 01:02:54;;;;;;;;;;;4.70;99.90;;;;;;5115182;28;19908;-49
2022/04/20 01:05:21;;;;;;;;;;;4.70;99.90;;;;;;5115286;28;19919;-48
2022/04/20 01:07:47;;;;;;;;;;;4.70;99.90;;;;;;5115138;28;20408;-46
2022/04/20 01:10:12;;;;;;;;;;;4.60;99.90;;;;;;5115463;28;19907;-46
2022/04/20 01:12:39;;;;;;;;;;;4.50;99.90;;;;;;5114794;28;19914;-47
2022/04/20 01:15:04;;;;;;;;;;;4.60;99.90;;;;;;5115011;28;19908;-48
2022/04/20 01:17:30;;;;;;;;;;;4.60;99.90;;;;;;5114510;28;19919;-48
2022/04/20 01:19:57;;;;;;;;;;;4.60;99.90;;;;;;5114560;28;19918;-47
2022/04/20 01:22:22;;;;;;;;;;;4.50;99.90;;;;;;5114749;28;19908;-47
2022/04/20 01:24:48;;;;;;;;;;;4.50;99.90;;;;;;5114886;28;19908;-49
2022/04/20 01:27:14;;;;;;;;;;;4.50;99.90;;;;;;5114485;28;19914;-44
2022/04/20 01:29:40;;;;;;;;;;;4.50;99.90;;;;;;5114502;28;19908;-44
2022/04/20 01:32:06;;;;;;;;;;;4.50;99.90;;;;;;5114055;28;19920;-48
2022/04/20 01:34:33;;;;;;;;;;;4.40;99.90;;;;;;5114614;28;19968;-47
2022/04/20 01:36:58;;;;;;;;;;;4.40;99.90;;;;;;5114425;28;20358;-50
2022/04/20 01:39:24;;;;;;;;;;;4.40;99.90;;;;;;5114418;28;19914;-45
2022/04/20 01:41:49;;;;;;;;;;;4.30;99.90;;;;;;5114290;28;19908;-48
2022/04/20 01:44:15;;;;;;;;;;;4.30;99.90;;;;;;5114612;28;19916;-47
2022/04/20 01:46:40;;;;;;;;;;;4.30;99.90;;;;;;5114241;28;19947;-44
2022/04/20 01:49:06;;;;;;;;;;;4.30;99.90;;;;;;5114165;28;19911;-45
2022/04/20 01:51:47;;;;;;;;;;;4.20;99.90;;;;;;5114561;28;19919;-47
2022/04/20 01:54:12;;;;;;;;;;;4.20;99.90;;;;;;5114640;28;19977;-45
2022/04/20 01:56:38;;;;;;;;;;;4.20;99.90;;;;;;5096197;28;19908;-47
2022/04/20 01:59:04;;;;;;;;;;;4.30;99.90;;;;;;5114154;28;19915;-45
2022/04/20 02:04:14;;;;;;;;;;;4.20;99.90;;;;;;5114158;28;19996;-45
2022/04/20 02:06:39;;;;;;;;;;;4.20;99.90;;;;;;5114132;28;19912;-47
2022/04/20 02:09:05;;;;;;;;;;;4.20;99.90;;;;;;5114439;28;19994;-48
2022/04/20 02:11:30;;;;;;;;;;;4.20;99.90;;;;;;5114049;28;19908;-47
2022/04/20 02:13:56;;;;;;;;;;;4.20;99.90;;;;;;5095932;28;19920;-49
2022/04/20 02:16:21;;;;;;;;;;;4.10;99.90;;;;;;5114264;28;19908;-48
2022/04/20 02:18:47;;;;;;;;;;;4.10;99.90;;;;;;5114229;28;20022;-48
2022/04/20 02:21:13;;;;;;;;;;;4.10;99.90;;;;;;5114031;28;19914;-47
2022/04/20 02:23:38;;;;;;;;;;;4.10;99.90;;;;;;5114173;28;19958;-44
2022/04/20 02:26:04;;;;;;;;;;;4.00;99.90;;;;;;5114225;28;19954;-47
2022/04/20 02:28:29;;;;;;;;;;;4.00;99.90;;;;;;5114180;28;20022;-49
2022/04/20 02:30:54;;;;;;;;;;;4.00;99.90;;;;;;5113816;28;19951;-45
2022/04/20 02:33:20;;;;;;;;;;;4.00;99.90;;;;;;5113794;28;19939;-45
2022/04/20 02:35:46;;;;;;;;;;;4.00;99.90;;;;;;5114105;28;19964;-50
2022/04/20 02:38:11;;;;;;;;;;;3.90;99.90;;;;;;5113928;28;19957;-47
2022/04/20 02:40:37;;;;;;;;;;;3.90;99.90;;;;;;5114022;28;20314;-45
2022/04/20 02:43:03;;;;;;;;;;;3.90;99.90;;;;;;5115463;28;19911;-49
2022/04/20 02:45:29;;;;;;;;;;;3.90;99.90;;;;;;5117856;28;19908;-46
2022/04/20 02:47:55;;;;;;;;;;;3.90;99.90;;;;;;5118166;28;19915;-47
2022/04/20 02:50:20;;;;;;;;;;;3.90;99.90;;;;;;5117477;28;20003;-49
2022/04/20 02:52:46;;;;;;;;;;;3.90;99.90;;;;;;5117301;28;19911;-45
2022/04/20 02:55:11;;;;;;;;;;;3.80;99.90;;;;;;5117521;28;19999;-45
2022/04/20 02:57:37;;;;;;;;;;;3.80;99.90;;;;;;5117692;28;19908;-46
2022/04/20 03:00:03;;;;;;;;;;;3.80;99.90;;;;;;5117556;28;19911;-48
2022/04/20 03:02:28;;;;;;;;;;;3.80;99.90;;;;;;5117452;28;19930;-46
2022/04/20 03:04:54;;;;;;;;;;;3.80;99.90;;;;;;5117599;28;19908;-48
2022/04/20 03:07:20;;;;;;;;;;;3.80;99.90;;;;;;5117717;28;20268;-47
2022/04/20 03:09:45;;;;;;;;;;;3.60;99.90;;;;;;5117013;28;19998;-47
2022/04/20 03:12:11;;;;;;;;;;;3.50;99.90;;;;;;5117356;28;20369;-46
2022/04/20 03:14:36;;;;;;;;;;;3.60;99.90;;;;;;5116970;28;19920;-49
2022/04/20 03:17:02;;;;;;;;;;;3.60;99.90;;;;;;5117098;28;19914;-45
2022/04/20 03:19:27;;;;;;;;;;;3.60;99.90;;;;;;5117318;28;19908;-45
2022/04/20 03:21:53;;;;;;;;;;;3.60;99.90;;;;;;5116841;28;19908;-46
2022/04/20 03:24:18;;;;;;;;;;;3.60;99.90;;;;;;5116774;28;19908;-46
2022/04/20 03:26:45;;;;;;;;;;;3.50;99.90;;;;;;5117085;28;19974;-48
2022/04/20 03:29:11;;;;;;;;;;;3.50;99.90;;;;;;5116842;28;19933;-47
2022/04/20 03:31:38;;;;;;;;;;;3.50;99.90;;;;;;5117146;28;20271;-45
2022/04/20 03:34:04;;;;;;;;;;;3.60;99.90;;;;;;5116656;28;20269;-47
2022/04/20 03:36:30;;;;;;;;;;;3.50;99.90;;;;;;5116589;28;20002;-45
2022/04/20 03:38:55;;;;;;;;;;;3.50;99.90;;;;;;5116812;28;19952;-47
2022/04/20 03:41:22;;;;;;;;;;;3.50;99.90;;;;;;5116508;28;20304;-47
2022/04/20 03:43:50;;;;;;;;;;;3.40;99.90;;;;;;5116683;28;19907;-44
2022/04/20 03:46:16;;;;;;;;;;;3.40;99.90;;;;;;5098330;28;19912;-44
2022/04/20 03:48:42;;;;;;;;;;;3.50;99.90;;;;;;5116603;28;19908;-45
2022/04/20 03:51:07;;;;;;;;;;;3.40;99.90;;;;;;5098543;28;19908;-46
2022/04/20 03:53:33;;;;;;;;;;;3.30;99.90;;;;;;5115847;28;19923;-47
2022/04/20 03:55:58;;;;;;;;;;;3.30;99.90;;;;;;5115487;28;19915;-48
2022/04/20 03:58:24;;;;;;;;;;;3.30;99.90;;;;;;5116170;28;19915;-46
2022/04/20 04:00:51;;;;;;;;;;;3.30;99.90;;;;;;5116775;28;19915;-45
2022/04/20 04:03:17;;;;;;;;;;;3.20;99.90;;;;;;5116772;28;20048;-45
2022/04/20 04:05:43;;;;;;;;;;;3.20;99.90;;;;;;5116123;28;19908;-46
2022/04/20 04:08:09;;;;;;;;;;;3.10;99.90;;;;;;5116180;28;19908;-46
2022/04/20 04:10:34;;;;;;;;;;;3.20;99.90;;;;;;5116187;28;19908;-44
2022/04/20 04:13:00;;;;;;;;;;;3.20;99.90;;;;;;5115669;28;19907;-47
2022/04/20 04:15:25;;;;;;;;;;;3.20;99.90;;;;;;5097259;28;20006;-46
2022/04/20 04:18:01;;;;;;;;;;;3.20;99.90;;;;;;5115766;28;20032;-46
2022/04/20 04:20:27;;;;;;;;;;;3.10;99.90;;;;;;5115939;28;20311;-48
2022/04/20 04:22:53;;;;;;;;;;;3.20;99.90;;;;;;5115867;28;20042;-51
2022/04/20 04:25:19;;;;;;;;;;;3.10;99.90;;;;;;5115540;28;20358;-46
2022/04/20 04:27:45;;;;;;;;;;;3.20;99.90;;;;;;5097403;28;19959;-44
2022/04/20 04:30:11;;;;;;;;;;;3.10;99.90;;;;;;5115651;28;19914;-44
2022/04/20 04:32:36;;;;;;;;;;;3.10;99.90;;;;;;5115709;28;20454;-46
2022/04/20 04:35:02;;;;;;;;;;;3.20;99.90;;;;;;5115417;28;20018;-48
2022/04/20 04:37:28;;;;;;;;;;;3.20;99.90;;;;;;5115255;28;19995;-49
2022/04/20 04:39:53;;;;;;;;;;;3.20;99.90;;;;;;5115151;28;19908;-49
2022/04/20 04:42:19;;;;;;;;;;;3.20;99.90;;;;;;5097007;28;19933;-47
2022/04/20 04:44:44;;;;;;;;;;;3.20;99.90;;;;;;5097077;28;19915;-44
2022/04/20 04:49:54;;;;;;;;;;;3.30;99.90;;;;;;5115129;28;19933;-48
2022/04/20 04:52:19;;;;;;;;;;;3.50;99.90;;;;;;5115636;28;19907;-48
2022/04/20 04:54:45;;;;;;;;;;;3.60;99.90;;;;;;5115235;28;19923;-45
2022/04/20 04:57:12;;;;;;;;;;;3.60;99.90;;;;;;5114493;28;20259;-45
2022/04/20 04:59:38;;;;;;;;;;;3.80;99.90;;;;;;5114420;28;20308;-45
2022/04/20 05:02:04;;;;;;;;;;;3.70;99.90;;;;;;5114687;28;19908;-47
2022/04/20 05:04:30;;;;;;;;;;;3.70;99.90;;;;;;5114834;28;19908;-49
2022/04/20 05:06:56;;;;;;;;;;;3.70;99.90;;;;;;5114304;28;19916;-48
2022/04/20 05:09:21;;;;;;;;;;;3.60;99.90;;;;;;5115128;28;19968;-47
2022/04/20 05:11:48;;;;;;;;;;;3.70;99.90;;;;;;5114543;28;20278;-48
2022/04/20 05:14:17;;;;;;;;;;;3.80;99.90;;;;;;5114729;28;19916;-45
2022/04/20 05:16:43;;;;;;;;;;;4.00;99.90;;;;;;5114551;28;20263;-46
2022/04/20 05:19:09;;;;;;;;;;;4.10;99.90;;;;;;5114145;28;19908;-48
2022/04/20 05:21:35;;;;;;;;;;;4.20;99.90;;;;;;5114375;28;19908;-48
2022/04/20 05:24:00;;;;;;;;;;;4.30;99.90;;;;;;5114181;28;20335;-47
2022/04/20 05:26:26;;;;;;;;;;;4.50;99.90;;;;;;5113990;28;19984;-45
2022/04/20 05:28:52;;;;;;;;;;;4.50;99.90;;;;;;5096162;28;20049;-48
2022/04/20 05:31:17;;;;;;;;;;;4.50;99.90;;;;;;5114178;28;20446;-47
2022/04/20 05:33:43;;;;;;;;;;;4.50;99.90;;;;;;5113814;28;19916;-44
2022/04/20 05:36:09;;;;;;;;;;;4.40;99.90;;;;;;5094832;28;20324;-46
2022/04/20 05:44:03;;;;;;;;;;;4.50;99.90;;;;;;5114247;28;19915;-47
2022/04/20 05:46:30;;;;;;;;;;;4.60;99.90;;;;;;5113452;28;19908;-45
2022/04/20 05:48:56;;;;;;;;;;;4.70;99.90;;;;;;5113672;28;19954;-49
2022/04/20 05:51:21;;;;;;;;;;;4.70;99.90;;;;;;5114085;28;19908;-49
2022/04/20 05:53:47;;;;;;;;;;;4.50;99.90;;;;;;5113597;28;19927;-46
2022/04/20 05:56:12;;;;;;;;;;;4.50;99.90;;;;;;5113695;28;20044;-45
2022/04/20 05:58:38;;;;;;;;;;;4.60;99.90;;;;;;5113615;28;19908;-47
2022/04/20 06:01:03;;;;;;;;;;;4.60;99.90;;;;;;5113489;28;19908;-47
2022/04/20 06:03:29;;;;;;;;;;;4.70;99.90;;;;;;5113725;28;19996;-45
2022/04/20 06:05:54;;;;;;;;;;;4.70;99.90;;;;;;5113796;28;20274;-47
2022/04/20 06:08:20;;;;;;;;;;;4.70;99.90;;;;;;5113424;28;19912;-47
2022/04/20 06:10:48;;;;;;;;;;;4.80;99.90;;;;;;5095397;28;19908;-44
2022/04/20 06:13:14;;;;;;;;;;;4.80;99.90;;;;;;5113736;28;19941;-47
2022/04/20 06:15:39;;;;;;;;;;;4.90;99.90;;;;;;5113274;28;20297;-48
2022/04/20 06:18:05;;;;;;;;;;;4.90;99.90;;;;;;5115884;28;19907;-45
2022/04/20 06:20:30;;;;;;;;;;;5.00;99.90;;;;;;5099536;28;19908;-48
2022/04/20 06:22:56;;;;;;;;;;;5.00;99.90;;;;;;5117737;28;19912;-47
2022/04/20 06:25:21;;;;;;;;;;;5.10;99.90;;;;;;5117720;28;19908;-47
2022/04/20 06:27:47;;;;;;;;;;;5.00;99.90;;;;;;5117538;28;20010;-45
2022/04/20 06:30:12;;;;;;;;;;;5.00;99.90;;;;;;5117523;28;19912;-47
2022/04/20 06:32:38;;;;;;;;;;;5.10;99.90;;;;;;5117975;28;19998;-47
2022/04/20 06:35:04;;;;;;;;;;;5.20;99.90;;;;;;5117385;28;19920;-47
2022/04/20 06:37:29;;;;;;;;;;;5.20;99.90;;;;;;5117683;28;20011;-47
2022/04/20 06:39:56;;;;;;;;;;;5.30;99.90;;;;;;5117444;28;19907;-45
2022/04/20 06:42:22;;;;;;;;;;;5.30;99.90;;;;;;5117261;28;20018;-47
2022/04/20 06:44:48;;;;;;;;;;;5.40;99.90;;;;;;5117139;28;20354;-47
2022/04/20 06:47:13;;;;;;;;;;;5.50;99.90;;;;;;5099142;28;20003;-45
2022/04/20 06:49:39;;;;;;;;;;;5.60;99.90;;;;;;5116862;28;19908;-48
2022/04/20 07:00:17;;;;;;;;;;;6.10;99.90;;;;;;5116689;28;20247;-49
2022/04/20 07:02:43;;;;;;;;;;;6.20;99.90;;;;;;5098923;28;20284;-46
2022/04/20 07:05:09;;;;;;;;;;;6.10;99.90;;;;;;5098536;28;19908;-47
2022/04/20 07:07:35;;;;;;;;;;;6.20;99.90;;;;;;5098365;28;20311;-47
2022/04/20 07:10:01;;;;;;;;;;;6.10;99.90;;;;;;5116664;28;20021;-48
2022/04/20 07:12:26;;;;;;;;;;;6.20;99.90;;;;;;5116899;28;20284;-45
2022/04/20 07:14:52;;;;;;;;;;;6.30;99.90;;;;;;5116359;28;19923;-45
2022/04/20 07:17:18;;;;;;;;;;;6.20;99.90;;;;;;5116610;28;20304;-45
2022/04/20 07:19:43;;;;;;;;;;;6.20;99.90;;;;;;5116232;28;19907;-47
2022/04/20 07:22:09;;;;;;;;;;;6.40;99.90;;;;;;5116268;28;19908;-46
2022/04/20 07:24:34;;;;;;;;;;;6.60;99.90;;;;;;5116775;28;19908;-47
2022/04/20 07:27:00;;;;;;;;;;;6.60;99.90;;;;;;5116148;28;19952;-48
2022/04/20 07:29:25;;;;;;;;;;;6.60;99.90;;;;;;5115023;28;19912;-46
2022/04/20 07:31:51;;;;;;;;;;;6.30;99.90;;;;;;5116314;28;19920;-46
2022/04/20 07:34:16;;;;;;;;;;;6.50;99.90;;;;;;5116251;28;19916;-45
2022/04/20 07:36:42;;;;;;;;;;;6.70;99.90;;;;;;5116054;28;19908;-46
2022/04/20 07:39:07;;;;;;;;;;;6.80;99.90;;;;;;5115424;28;20312;-46
2022/04/20 07:41:33;;;;;;;;;;;6.80;99.90;;;;;;5116300;28;20362;-45
2022/04/20 07:43:58;;;;;;;;;;;6.80;99.90;;;;;;5116465;28;19908;-47
2022/04/20 07:46:24;;;;;;;;;;;6.80;99.90;;;;;;5115899;28;19908;-45
2022/04/20 07:48:49;;;;;;;;;;;6.90;99.90;;;;;;5115953;28;19908;-47
2022/04/20 07:51:17;;;;;;;;;;;7.00;99.90;;;;;;5116020;28;19983;-45
2022/04/20 07:53:43;;;;;;;;;;;7.00;99.90;;;;;;5115998;28;19923;-46
2022/04/20 07:56:10;;;;;;;;;;;7.20;99.90;;;;;;5115663;28;19908;-47
2022/04/20 07:58:36;;;;;;;;;;;7.40;99.90;;;;;;5097843;28;20258;-48
2022/04/20 08:01:01;;;;;;;;;;;7.50;99.90;;;;;;5115974;28;19907;-46
2022/04/20 08:03:27;;;;;;;;;;;7.60;99.90;;;;;;5115448;28;19920;-49
2022/04/20 08:05:53;;;;;;;;;;;7.80;99.90;;;;;;5097564;28;19915;-48
2022/04/20 08:08:19;;;;;;;;;;;7.80;99.90;;;;;;5115607;28;19952;-46
2022/04/20 08:10:45;;;;;;;;;;;7.90;99.90;;;;;;5115607;28;19907;-45
2022/04/20 08:15:55;;;;;;;;;;;7.90;99.90;;;;;;5115491;28;20014;-45
2022/04/20 08:18:21;;;;;;;;;;;8.10;99.90;;;;;;5115711;28;19947;-46
2022/04/20 08:20:47;;;;;;;;;;;8.30;99.90;;;;;;5115334;28;19912;-46
2022/04/20 08:23:13;;;;;;;;;;;8.40;99.90;;;;;;5114999;28;19915;-46
2022/04/20 08:25:39;;;;;;;;;;;8.20;99.90;;;;;;5115177;28;19914;-46
2022/04/20 08:28:06;;;;;;;;;;;8.20;99.90;;;;;;5115061;28;19908;-45
2022/04/20 08:30:32;;;;;;;;;;;7.80;99.90;;;;;;5096832;28;19989;-49
2022/04/20 08:32:58;;;;;;;;;;;8.10;99.90;;;;;;5115278;28;19961;-48
2022/04/20 08:35:23;;;;;;;;;;;8.10;99.90;;;;;;5114943;28;19908;-47
2022/04/20 08:37:49;;;;;;;;;;;8.00;99.30;;;;;;5115115;28;19973;-50
2022/04/20 08:40:15;;;;;;;;;;;8.00;99.90;;;;;;5114747;28;19954;-45
2022/04/20 08:42:41;;;;;;;;;;;8.00;99.90;;;;;;5115159;28;19950;-44
2022/04/20 08:45:07;;;;;;;;;;;8.00;99.90;;;;;;5114972;28;19919;-46
2022/04/20 08:47:39;;;;;;;;;;;8.00;99.90;;;;;;5114707;28;19908;-46
2022/04/20 08:50:05;;;;;;;;;;;8.30;99.90;;;;;;5114724;28;19907;-46
2022/04/20 08:52:37;;;;;;;;;;;8.50;99.10;;;;;;5115087;28;19942;-45
2022/04/20 08:55:06;;;;;;;;;;;8.50;99.80;;;;;;5114947;28;19916;-45
2022/04/20 08:57:32;;;;;;;;;;;8.70;99.70;;;;;;5114963;28;19908;-47
2022/04/20 08:59:57;;;;;;;;;;;8.40;99.90;;;;;;5114785;28;20015;-46
2022/04/20 09:02:28;;;;;;;;;;;8.60;99.30;;;;;;5114670;28;20072;-46
2022/04/20 09:04:54;;;;;;;;;;;8.70;99.90;;;;;;5114683;28;20207;-47
2022/04/20 09:07:20;;;;;;;;;;;8.90;99.80;;;;;;5114398;28;19919;-46
2022/04/20 09:09:46;;;;;;;;;;;9.00;99.10;;;;;;5114231;28;19912;-45
2022/04/20 09:12:18;;;;;;;;;;;9.10;99.00;;;;;;5114629;28;19947;-48
2022/04/20 09:14:47;;;;;;;;;;;8.90;98.80;;;;;;5114031;28;20317;-50
2022/04/20 09:17:13;;;;;;;;;;;9.00;98.90;;;;;;5114092;28;20366;-44
2022/04/20 09:19:41;;;;;;;;;;;9.10;98.40;;;;;;5114027;28;19915;-46
2022/04/20 09:22:17;;;;;;;;;;;9.20;98.10;;;;;;5113919;28;19980;-49
2022/04/20 09:24:57;;;;;;;;;;;9.20;97.20;;;;;;5114356;28;19907;-46
2022/04/20 09:27:23;;;;;;;;;;;9.10;96.00;;;;;;5114383;28;19908;-48
2022/04/20 09:29:52;;;;;;;;;;;9.50;96.10;;;;;;5114236;28;19987;-45
2022/04/20 09:32:38;;;;;;;;;;;9.40;96.00;;;;;;5114556;28;19919;-46
2022/04/20 09:35:08;;;;;;;;;;;9.50;96.00;;;;;;5113862;28;20339;-49
2022/04/20 09:37:35;;;;;;;;;;;9.70;95.50;;;;;;5114487;28;20243;-50
2022/04/20 09:40:01;;;;;;;;;;;9.90;95.20;;;;;;5113798;28;20040;-49
2022/04/20 09:42:27;;;;;;;;;;;9.80;94.40;;;;;;5114166;28;19999;-48
2022/04/20 09:44:55;;;;;;;;;;;10.00;94.60;;;;;;5114091;28;19954;-49
2022/04/20 09:50:06;;;;;;;;;;;10.10;94.40;;;;;;5113696;28;19960;-47
2022/04/20 09:52:39;;;;;;;;;;;10.10;94.60;;;;;;5095011;28;19908;-46
2022/04/20 09:55:07;;;;;;;;;;;10.20;94.30;;;;;;5113897;28;19964;-45
2022/04/20 09:57:35;;;;;;;;;;;10.30;94.80;;;;;;5129289;27;19908;-46
2022/04/20 10:00:00;;;;;;;;;;;10.00;93.80;;;;;;5113669;28;19915;-47
2022/04/20 10:02:28;;;;;;;;;;;10.20;94.30;;;;;;5113824;28;19912;-49
2022/04/20 10:04:55;;;;;;;;;;;10.60;94.00;;;;;;5095712;28;20274;-48
2022/04/20 10:07:20;;;;;;;;;;;10.30;93.30;;;;;;5095969;28;20300;-48
2022/04/20 10:09:46;;;;;;;;;;;9.90;93.00;;;;;;5113305;28;20076;-49
2022/04/20 10:12:13;;;;;;;;;;;9.80;92.50;;;;;;5113772;28;19915;-45
2022/04/20 10:17:25;;;;;;;;;;;10.50;92.40;;;;;;5113476;28;20045;-46
2022/04/20 10:19:52;;;;;;;;;;;10.80;92.10;;;;;;5113454;28;19960;-47
2022/04/20 10:22:18;;;;;;;;;;;10.70;91.40;;;;;;5113781;28;19961;-46
2022/04/20 10:24:45;;;;;;;;;;;10.60;91.70;;;;;;5113555;28;19964;-46
2022/04/20 10:27:18;;;;;;;;;;;10.90;91.10;;;;;;5113217;28;19920;-45
2022/04/20 10:29:46;;;;;;;;;;;10.90;90.40;;;;;;5113167;28;19907;-47
2022/04/20 10:32:19;;;;;;;;;;;10.90;90.50;;;;;;5113795;28;19919;-46
2022/04/20 10:34:45;;;;;;;;;;;10.90;90.50;;;;;;5113141;28;19922;-47
2022/04/20 10:37:15;;;;;;;;;;;11.00;90.10;;;;;;5113012;28;19986;-49
2022/04/20 10:39:41;;;;;;;;;;;11.00;90.10;;;;;;5113008;28;19907;-48
2022/04/20 10:42:16;;;;;;;;;;;10.80;90.10;;;;;;5113037;28;19918;-47
2022/04/20 10:44:51;;;;;;;;;;;10.80;90.10;;;;;;5113447;28;19908;-46
2022/04/20 10:47:23;;;;;;;;;;;10.70;90.10;;;;;;5113109;28;19926;-45
2022/04/20 10:49:51;;;;;;;;;;;10.60;89.70;;;;;;5113115;28;19911;-47
2022/04/20 10:52:29;;;;;;;;;;;10.70;89.30;;;;;;5113115;28;19931;-46
2022/04/20 10:54:56;;;;;;;;;;;11.00;89.80;;;;;;5112640;28;19980;-48
2022/04/20 10:57:32;;;;;;;;;;;11.30;88.80;;;;;;5113117;28;19908;-47
2022/04/20 11:00:16;;;;;;;;;;;10.80;88.80;;;;;;5113443;28;19907;-48
2022/04/20 11:02:55;;;;;;;;;;;10.90;88.30;;;;;;5113481;28;19955;-45
2022/04/20 11:05:21;;;;;;;;;;;11.00;88.80;;;;;;5116872;28;20370;-50
2022/04/20 11:08:05;;;;;;;;;;;11.00;87.50;;;;;;5117179;28;19937;-48
2022/04/20 11:10:34;;;;;;;;;;;10.70;86.90;;;;;;5117074;28;19912;-46
2022/04/20 11:19:06;;;;;;;;;;;10.70;87.90;;;;;;5116909;28;19957;-47
2022/04/20 11:21:33;;;;;;;;;;;11.10;88.10;;;;;;5098461;28;20358;-46
2022/04/20 11:24:03;;;;;;;;;;;11.50;87.20;;;;;;5116708;28;20238;-50
2022/04/20 11:26:55;;;;;;;;;;;11.60;87.00;;;;;;5116595;28;19934;-47
2022/04/20 11:29:22;;;;;;;;;;;11.40;86.50;;;;;;5114328;28;19954;-44
2022/04/20 11:31:54;;;;;;;;;;;11.90;99.90;;;;;;5098572;28;19963;-45
2022/04/20 11:34:20;;;;;;;;;;;13.50;99.90;;;;;;5116641;28;20017;-46
2022/04/20 11:36:47;;;;;;;;;;;14.30;99.90;;;;;;5117006;28;19911;-45
2022/04/20 11:39:14;;;;;;;;;;;14.90;99.90;;;;;;5116899;28;19908;-42
2022/04/20 11:41:43;;;;;;;;;;;15.40;99.90;;;;;;5116493;28;19908;-42
2022/04/20 11:44:21;;;;;;;;;;;15.70;99.90;;;;;;5116851;28;19959;-43
2022/04/20 11:46:47;;;;;;;;;;;15.90;99.90;;;;;;5116684;28;20085;-43
2022/04/20 11:49:13;;;;;;;;;;;16.20;99.90;;;;;;5115929;28;20269;-43
2022/04/20 11:51:43;;;;;;;;;;;16.30;99.90;;;;;;5097806;28;19998;-43
2022/04/20 11:54:09;;;;;;;;;;;16.50;99.90;;;;;;5116629;28;20023;-46
2022/04/20 11:56:35;;;;;;;;;;;16.60;99.90;;;;;;5116394;28;19951;-45
2022/04/20 11:59:02;;;;;;;;;;;16.70;99.90;;;;;;5116134;28;19908;-43
2022/04/20 12:01:29;;;;;;;;;;;16.70;99.90;;;;;;5116347;28;19908;-47
2022/04/20 12:03:55;;;;;;;;;;;16.70;99.90;;;;;;5116112;28;19998;-43
2022/04/20 12:06:23;;;;;;;;;;;16.80;99.90;;;;;;5116087;28;19998;-46
2022/04/20 12:08:51;;;;;;;;;;;16.80;99.90;;;;;;5116053;28;19908;-47
2022/04/20 12:11:16;;;;;;;;;;;16.80;99.90;;;;;;5115822;28;19943;-48
2022/04/20 12:13:42;;;;;;;;;;;16.80;99.90;;;;;;5115939;28;19963;-45
2022/04/20 12:16:12;;;;;;;;;;;16.80;99.90;;;;;;5115533;28;19908;-46
2022/04/20 12:18:42;;;;;;;;;;;16.80;99.90;;;;;;5115274;28;19908;-47
2022/04/20 12:21:27;;;;;;;;;;;16.80;99.90;;;;;;5115608;28;19907;-44
2022/04/20 12:23:52;;;;;;;;;;;16.80;99.90;;;;;;5115212;28;19907;-40
2022/04/20 12:26:28;;;;;;;;;;;16.90;99.90;;;;;;5115658;28;19914;-41
2022/04/20 12:29:03;;;;;;;;;;;16.90;99.90;;;;;;5115719;28;20344;-46
2022/04/20 12:31:29;;;;;;;;;;;17.00;99.90;;;;;;5115417;28;20371;-43
2022/04/20 12:34:05;;;;;;;;;;;17.10;99.90;;;;;;5097225;28;19922;-39
2022/04/20 12:36:31;;;;;;;;;;;17.20;99.90;;;;;;5115692;28;19912;-40
2022/04/20 12:38:58;;;;;;;;;;;17.00;98.00;;;;;;5115714;28;19965;-38
2022/04/20 12:41:35;;;;;;;;;;;16.90;97.10;;;;;;5115592;28;19908;-36
2022/04/20 12:44:02;;;;;;;;;;;16.90;96.20;;;;;;5115347;28;19955;-35
2022/04/20 12:46:35;;;;;;;;;;;16.60;94.00;;;;;;5115256;28;19908;-35
2022/04/20 12:49:03;;;;;;;;;;;16.20;92.50;;;;;;5115229;28;19951;-36
2022/04/20 12:51:28;;;;;;;;;;;16.10;93.40;;;;;;5115457;28;19907;-35
2022/04/20 12:53:55;;;;;;;;;;;16.20;94.40;;;;;;5115356;28;19923;-36
2022/04/20 13:02:02;;;;;;;;;;;16.50;98.60;;;;;;5114896;28;20392;-35
2022/04/20 13:04:28;;;;;;;;;;;16.60;99.20;;;;;;5114933;28;19998;-35
2022/04/20 13:06:55;;;;;;;;;;;16.70;99.50;;;;;;5114826;28;19976;-35
2022/04/20 13:09:20;;;;;;;;;;;16.70;99.90;;;;;;5115016;28;19959;-35
2022/04/20 13:11:46;;;;;;;;;;;16.70;99.90;;;;;;5115044;28;19999;-35
2022/04/20 13:14:11;;;;;;;;;;;16.80;99.90;;;;;;5114487;28;20326;-35
2022/04/20 13:16:37;;;;;;;;;;;16.70;99.90;;;;;;5114731;28;19943;-35
2022/04/20 13:19:02;;;;;;;;;;;16.80;99.90;;;;;;5114637;28;19953;-35
2022/04/20 13:21:28;;;;;;;;;;;16.70;99.90;;;;;;5114676;28;20346;-35
2022/04/20 13:23:55;;;;;;;;;;;16.70;99.90;;;;;;5114565;28;20421;-36
2022/04/20 13:29:05;;;;;;;;;;;16.70;99.90;;;;;;5113882;28;20379;-35
2022/04/20 13:31:31;;;;;;;;;;;16.80;99.90;;;;;;5114055;28;19945;-35
2022/04/20 13:33:57;;;;;;;;;;;16.80;99.90;;;;;;5114284;28;19926;-36
2022/04/20 13:36:22;;;;;;;;;;;16.80;99.80;;;;;;5095957;28;19995;-35
2022/04/20 13:38:48;;;;;;;;;;;16.70;99.90;;;;;;5113863;28;19951;-36
2022/04/20 13:41:13;;;;;;;;;;;16.80;99.40;;;;;;5114298;28;19907;-36
2022/04/20 13:43:39;;;;;;;;;;;16.70;99.80;;;;;;5113906;28;20063;-36
2022/04/20 13:46:04;;;;;;;;;;;16.70;99.90;;;;;;5114299;28;19908;-35
2022/04/20 13:48:30;;;;;;;;;;;16.80;99.90;;;;;;5113719;28;19907;-36
2022/04/20 13:50:55;;;;;;;;;;;16.80;99.40;;;;;;5114238;28;19912;-37
2022/04/20 13:53:21;;;;;;;;;;;16.80;99.90;;;;;;5113960;28;20002;-36
2022/04/20 13:55:47;;;;;;;;;;;16.80;99.90;;;;;;5114089;28;19908;-35
2022/04/20 13:58:12;;;;;;;;;;;16.80;99.90;;;;;;5114168;28;19908;-36
2022/04/20 14:00:40;;;;;;;;;;;16.90;99.80;;;;;;5114240;28;20003;-35
2022/04/20 14:03:06;;;;;;;;;;;16.90;99.90;;;;;;5114201;28;20416;-36
2022/04/20 14:05:32;;;;;;;;;;;16.90;99.20;;;;;;5114036;28;20358;-36
2022/04/20 14:07:57;;;;;;;;;;;16.80;99.30;;;;;;5113955;28;19983;-35
2022/04/20 14:10:23;;;;;;;;;;;16.70;99.90;;;;;;5113689;28;19969;-35
2022/04/20 14:12:48;;;;;;;;;;;16.70;99.90;;;;;;5113705;28;19915;-36
2022/04/20 14:15:16;;;;;;;;;;;16.80;99.60;;;;;;5095334;28;20435;-35
2022/04/20 14:17:44;;;;;;;;;;;16.80;98.10;;;;;;5113934;28;19908;-34
2022/04/20 14:20:10;;;;;;;;;;;16.90;99.90;;;;;;5113942;28;20350;-36
2022/04/20 14:22:35;;;;;;;;;;;16.80;99.90;;;;;;5113753;28;20396;-37
2022/04/20 14:33:13;;;;;;;;;;;16.90;99.90;;;;;;5113961;28;19950;-36
2022/04/20 14:35:39;;;;;;;;;;;17.00;99.90;;;;;;5113762;28;19908;-36
2022/04/20 14:38:04;;;;;;;;;;;17.00;99.90;;;;;;5113928;28;20008;-37
2022/04/20 14:40:30;;;;;;;;;;;17.00;99.40;;;;;;5117642;28;19908;-37
2022/04/20 14:42:56;;;;;;;;;;;16.90;99.90;;;;;;5117861;28;19911;-36
2022/04/20 14:45:23;;;;;;;;;;;17.00;99.90;;;;;;5117791;28;20358;-37
2022/04/20 14:47:52;;;;;;;;;;;16.90;99.90;;;;;;5117365;28;19908;-37
2022/04/20 14:50:18;;;;;;;;;;;17.00;99.90;;;;;;5117069;28;19908;-37
2022/04/20 14:52:45;;;;;;;;;;;16.90;99.90;;;;;;5117542;28;19915;-37
2022/04/20 14:55:11;;;;;;;;;;;16.90;99.90;;;;;;5117063;28;19923;-37
2022/04/20 14:57:36;;;;;;;;;;;16.90;99.90;;;;;;5117244;28;19911;-37
2022/04/20 15:00:05;;;;;;;;;;;17.00;99.90;;;;;;5117501;28;20006;-36
2022/04/20 15:02:31;;;;;;;;;;;17.00;99.90;;;;;;5117087;28;19908;-36
2022/04/20 15:04:57;;;;;;;;;;;17.00;99.90;;;;;;5117224;28;19941;-39
2022/04/20 15:07:22;;;;;;;;;;;16.90;99.90;;;;;;5117058;28;20357;-36
2022/04/20 15:09:48;;;;;;;;;;;16.90;99.90;;;;;;5117181;28;19915;-36
2022/04/20 15:12:13;;;;;;;;;;;16.90;99.90;;;;;;5116861;28;19959;-37
2022/04/20 15:14:39;;;;;;;;;;;16.90;99.90;;;;;;5116689;28;19923;-37